Portada
METAR-TAF:

METAR-TAF

Aeropuertos :

Benton Harbor, Míchigan, Estados Unidos

latitud: 42-07-43N, longitud: 086-25-42W, altitud: 196 m

Observación

El informe se hizo hace 14 minutos, a las 14:53 UTC
Viento 6 kt del oeste
Temperatura 30°C
Humedad 62%
Presión 1025 hPa
Visibilidad: 16.1 km
Cielo despejado

METAR: KBEH 201453Z AUTO 27006KT 10SM CLR 30/22 A3028 RMK AO2 SLP249 T03000217 51004

Hora: 11:07 (15:07 UTC)


TAF: falta

Observaciones y pronósticos meteorológicos de más de 4000 aeropuertos (mensajes METAR y TAF).

Los puntos amarillos y rojos representan las estaciones disponibles.

Ponga el ratón en el punto deseado para ver el nombre de la estación.

Haga clic para ver las observaciones y los pronósticos meteorológicos.

Para cambiar el mapa : haga clic en los botones verdes con una cruz de color negro para hacer un zoom, en el botón verde con un guión para alejar o en las flechas verdes para mapas adyacentes.


METAR-TAF: